Time;durP1;ratioP1;P1;durP2;ratioP2;P2;SDS_P1;SDS_P2;PMS_P1;PMS_P2;Temp;Humidity;BMP_temperature;BMP_pressure;BME280_temperature;BME280_humidity;BME280_pressure;Samples;Min_cycle;Max_cycle;Signal;HPM_P1;HPM_P2
2022/02/03 00:01:01;;;;;;;;;5.25;4.25;;;;;12.45;56.33;102004.75;4877446;29;45339;-69
2022/02/03 00:03:38;;;;;;;;;4.00;4.00;;;;;12.44;56.42;102002.09;4883578;29;45354;-68
2022/02/03 00:06:11;;;;;;;;;4.00;2.00;;;;;12.42;56.36;101989.63;4883311;29;45331;-69
2022/02/03 00:22:08;;;;;;;;;3.00;3.00;;;;;12.41;56.20;101976.25;4883432;29;45510;-69
2022/02/03 00:24:56;;;;;;;;;3.00;3.00;;;;;12.41;56.05;101974.50;4874507;29;45308;-69
2022/02/03 00:27:38;;;;;;;;;2.00;2.00;;;;;12.40;55.94;101977.19;4885900;29;45289;-69
2022/02/03 00:30:10;;;;;;;;;3.50;3.50;;;;;12.38;56.14;101981.72;4886180;29;45345;-69
2022/02/03 00:33:05;;;;;;;;;3.50;2.25;;;;;12.32;56.32;101971.09;4886327;29;45330;-69
2022/02/03 00:35:50;;;;;;;;;2.00;2.00;;;;;12.38;56.00;101971.00;4883206;29;45488;-68
2022/02/03 00:49:12;;;;;;;;;4.25;3.00;;;;;12.29;55.78;101963.13;4879108;29;45746;-69
2022/02/03 00:51:42;;;;;;;;;2.00;2.00;;;;;12.28;56.05;101959.59;4883635;29;45321;-68
2022/02/03 00:54:10;;;;;;;;;2.25;2.25;;;;;12.31;55.82;101961.28;4883513;29;45506;-68
2022/02/03 00:56:38;;;;;;;;;2.75;2.00;;;;;12.27;55.74;101956.94;4885589;29;45499;-68
2022/02/03 00:59:13;;;;;;;;;4.25;2.75;;;;;12.29;56.00;101953.28;4885938;29;46619;-68
2022/02/03 01:02:00;;;;;;;;;2.75;2.00;;;;;12.31;56.14;101953.28;4885663;29;45406;-68
2022/02/03 01:04:29;;;;;;;;;2.50;2.50;;;;;12.29;56.08;101952.44;4885884;29;45696;-68
2022/02/03 01:06:57;;;;;;;;;3.50;3.00;;;;;12.27;56.01;101951.56;4885873;29;45235;-68
2022/02/03 01:09:25;;;;;;;;;3.25;2.50;;;;;12.28;55.79;101958.69;4884027;29;46186;-69
2022/02/03 01:14:49;;;;;;;;;2.00;2.00;;;;;12.26;56.02;101957.84;4884390;29;45439;-68
2022/02/03 01:17:31;;;;;;;;;4.00;3.25;;;;;12.24;55.71;101957.88;4885387;29;45527;-68
2022/02/03 01:34:09;;;;;;;;;3.75;2.00;;;;;12.17;55.86;101949.06;4885433;29;45479;-68
2022/02/03 01:47:29;;;;;;;;;2.50;2.50;;;;;12.11;55.72;101943.88;4885534;29;45249;-68
2022/02/03 01:52:34;;;;;;;;;4.75;2.75;;;;;12.10;55.74;101943.88;4883535;29;46320;-68
2022/02/03 01:55:02;;;;;;;;;2.00;2.00;;;;;12.12;55.82;101944.72;4899021;29;45476;-69
2022/02/03 01:57:42;;;;;;;;;4.00;4.00;;;;;12.12;55.78;101947.41;4885134;29;45408;-68
2022/02/03 02:00:15;;;;;;;;;2.50;2.50;;;;;12.06;55.63;101929.66;4882283;29;45225;-68
2022/02/03 02:02:53;;;;;;;;;3.00;2.00;;;;;12.13;55.77;101938.44;4881643;29;45641;-68
2022/02/03 02:05:37;;;;;;;;;3.00;3.00;;;;;12.12;55.64;101945.59;4884669;29;45253;-68
2022/02/03 02:08:25;;;;;;;;;5.00;3.00;;;;;12.12;55.79;101934.91;4884259;29;45521;-68
2022/02/03 02:11:25;;;;;;;;;3.00;3.00;;;;;12.13;55.43;101930.41;4885048;29;45336;-68
2022/02/03 02:36:58;;;;;;;;;2.25;2.25;;;;;12.01;55.80;101911.03;4885034;29;45446;-68
2022/02/03 02:39:59;;;;;;;;;3.00;3.00;;;;;11.95;55.17;101880.84;4885319;29;45345;-69
2022/02/03 02:42:37;;;;;;;;;1.25;1.00;;;;;11.96;55.57;101875.47;4877958;29;45312;-68
2022/02/03 02:45:12;;;;;;;;;4.50;3.00;;;;;11.95;55.35;101854.97;4884954;29;45502;-68
2022/02/03 02:48:05;;;;;;;;;2.00;2.00;;;;;11.97;55.48;101853.13;4874861;29;45698;-68
2022/02/03 02:50:46;;;;;;;;;3.25;2.00;;;;;11.93;55.62;101838.06;4864999;29;45495;-68
2022/02/03 02:53:35;;;;;;;;;5.00;2.75;;;;;11.90;55.25;101821.16;4883405;29;46213;-69
2022/02/03 03:32:20;;;;;;;;;5.50;4.00;;;;;11.75;55.62;101728.72;4883721;29;46167;-69
2022/02/03 03:37:30;;;;;;;;;3.75;3.75;;;;;11.62;55.39;101720.94;4882509;29;45368;-68
2022/02/03 03:40:01;;;;;;;;;3.00;3.00;;;;;11.66;55.91;101719.09;4876852;29;45826;-68
2022/02/03 03:42:32;;;;;;;;;3.25;3.25;;;;;11.70;55.88;101719.94;4883115;29;47147;-69
2022/02/03 03:45:02;;;;;;;;;3.00;3.00;;;;;11.70;55.57;101714.56;4884081;29;45287;-69
2022/02/03 03:47:33;;;;;;;;;3.00;3.00;;;;;11.73;55.85;101730.53;4882995;29;45562;-69
2022/02/03 03:50:06;;;;;;;;;4.00;3.00;;;;;11.74;55.64;101726.97;4883218;29;45368;-68
2022/02/03 03:52:43;;;;;;;;;3.00;3.00;;;;;11.77;56.04;101721.53;4882159;29;46189;-69
2022/02/03 03:55:18;;;;;;;;;5.00;4.75;;;;;11.77;56.11;101709.03;4883714;29;45164;-68
2022/02/03 04:41:35;;;;;;;;;3.00;3.00;;;;;11.76;55.73;101667.19;4887287;29;45188;-69
2022/02/03 04:59:57;;;;;;;;;3.75;2.25;;;;;11.73;56.17;101626.22;4886311;29;45316;-69
2022/02/03 05:08:37;;;;;;;;;5.00;2.50;;;;;11.75;56.00;101621.75;4884089;29;45362;-69
2022/02/03 05:17:52;;;;;;;;;3.25;3.25;;;;;11.70;56.00;101608.47;4879404;29;45215;-69
2022/02/03 05:26:36;;;;;;;;;5.75;3.25;;;;;11.75;55.92;101622.59;4879874;29;45724;-69
2022/02/03 05:32:33;;;;;;;;;4.00;4.00;;;;;11.74;55.99;101619.97;4885270;29;45301;-69
2022/02/03 05:46:19;;;;;;;;;6.50;4.50;;;;;11.63;55.82;101601.50;4879584;29;45313;-69
2022/02/03 06:05:14;;;;;;;;;9.00;9.00;;;;;11.56;55.70;101591.84;4874353;29;45415;-68
2022/02/03 06:08:03;;;;;;;;;10.00;7.00;;;;;11.60;55.47;101596.22;4884922;29;45423;-69
2022/02/03 06:13:30;;;;;;;;;6.00;6.00;;;;;11.55;55.72;101577.59;4882909;29;45388;-69
2022/02/03 06:29:15;;;;;;;;;6.00;6.00;;;;;11.44;55.87;101540.44;4884006;29;45653;-68
2022/02/03 06:31:43;;;;;;;;;9.75;8.25;;;;;11.44;55.75;101550.22;4882164;29;46219;-69
2022/02/03 06:34:09;;;;;;;;;8.25;6.75;;;;;11.47;55.70;101543.00;4883993;29;45569;-69
2022/02/03 06:36:37;;;;;;;;;11.50;7.00;;;;;11.51;55.86;101541.16;4883119;29;45305;-69
2022/02/03 06:39:10;;;;;;;;;7.50;7.00;;;;;11.49;55.95;101533.19;4884632;29;45384;-69
2022/02/03 06:41:36;;;;;;;;;9.50;6.00;;;;;11.45;56.04;101522.59;4882679;29;46129;-69
2022/02/03 06:44:01;;;;;;;;;10.00;9.50;;;;;11.37;56.20;101521.88;4884117;29;45361;-69
2022/02/03 06:46:29;;;;;;;;;7.00;7.00;;;;;11.34;55.68;101519.28;4882402;29;45201;-69
2022/02/03 06:49:06;;;;;;;;;8.25;7.00;;;;;11.28;55.91;101514.97;4883631;29;45439;-68
2022/02/03 06:51:34;;;;;;;;;13.50;9.25;;;;;11.32;55.79;101524.66;4882561;29;46178;-68
2022/02/03 06:54:05;;;;;;;;;12.25;11.00;;;;;11.32;55.90;101519.31;4884560;29;45400;-68
2022/02/03 06:56:38;;;;;;;;;9.00;7.25;;;;;11.35;55.88;101521.06;4882509;29;45823;-68
2022/02/03 06:59:08;;;;;;;;;11.25;11.25;;;;;11.37;55.75;101522.75;4876279;29;45438;-68
2022/02/03 07:01:38;;;;;;;;;9.75;9.75;;;;;11.38;55.65;101521.00;4883879;29;45609;-68
2022/02/03 07:04:13;;;;;;;;;9.00;9.00;;;;;11.36;56.10;101520.13;4876768;29;45328;-68
2022/02/03 07:06:39;;;;;;;;;10.25;9.00;;;;;11.29;56.01;101504.25;4883582;29;45479;-69
2022/02/03 07:09:07;;;;;;;;;10.75;10.50;;;;;11.32;55.92;101522.00;4882204;29;45553;-68
2022/02/03 07:11:33;;;;;;;;;11.50;9.25;;;;;11.36;55.80;101530.81;4881998;29;46079;-68
2022/02/03 07:13:58;;;;;;;;;10.25;9.00;;;;;11.31;56.01;101525.59;4882901;29;45234;-68
2022/02/03 07:16:24;;;;;;;;;10.00;9.25;;;;;11.31;56.06;101534.47;4883931;29;45432;-69
2022/02/03 07:18:49;;;;;;;;;10.25;10.00;;;;;11.29;55.91;101524.72;4882792;29;45352;-67
2022/02/03 07:21:15;;;;;;;;;11.00;10.50;;;;;11.32;56.33;101528.19;4876604;29;45809;-70
2022/02/03 07:23:40;;;;;;;;;12.00;11.00;;;;;11.34;56.22;101532.66;4895072;28;45467;-69
2022/02/03 07:26:06;;;;;;;;;11.25;9.75;;;;;11.29;55.71;101530.97;4880648;29;45622;-70
2022/02/03 07:28:33;;;;;;;;;11.50;11.50;;;;;11.29;56.11;101544.34;4880602;29;45468;-70
2022/02/03 07:30:59;;;;;;;;;9.25;9.25;;;;;11.22;56.36;101528.47;4873526;29;45701;-69
2022/02/03 07:33:25;;;;;;;;;11.25;10.25;;;;;11.27;55.91;101551.47;4879952;29;45471;-69
2022/02/03 07:35:50;;;;;;;;;11.00;11.00;;;;;11.20;56.20;101533.84;4897284;29;45808;-73
2022/02/03 07:38:19;;;;;;;;;12.75;12.50;;;;;11.30;55.98;101538.06;4864658;29;45437;-73
2022/02/03 07:40:44;;;;;;;;;10.00;10.00;;;;;11.30;56.09;101529.16;4882225;29;46231;-73
2022/02/03 07:43:11;;;;;;;;;13.00;12.50;;;;;11.29;55.55;101535.41;4878944;29;45399;-73
2022/02/03 07:45:37;;;;;;;;;11.00;11.00;;;;;11.35;56.22;101540.63;4896860;29;45372;-73
2022/02/03 07:48:02;;;;;;;;;11.50;10.50;;;;;11.33;56.14;101534.44;4876124;29;45411;-73
2022/02/03 07:50:28;;;;;;;;;13.50;13.25;;;;;11.37;56.01;101533.44;4881633;29;47105;-70
2022/02/03 07:52:53;;;;;;;;;10.50;10.50;;;;;11.29;55.93;101524.72;4891554;29;45369;-70
2022/02/03 07:55:20;;;;;;;;;10.75;10.75;;;;;11.35;55.70;101548.66;4882372;29;45475;-69
2022/02/03 07:57:47;;;;;;;;;15.00;13.75;;;;;11.36;55.76;101554.88;4882708;29;45755;-70
2022/02/03 08:00:15;;;;;;;;;10.00;8.75;;;;;11.31;56.09;101542.50;4881500;29;47029;-70
2022/02/03 08:02:42;;;;;;;;;10.75;9.75;;;;;11.10;56.03;101500.22;4867319;29;45345;-75
2022/02/03 08:05:10;;;;;;;;;11.25;11.25;;;;;11.31;55.99;101546.97;4897081;29;45745;-69
2022/02/03 08:08:05;;;;;;;;;12.00;12.00;;;;;11.30;56.04;101522.03;4880983;29;45427;-68
2022/02/03 08:13:00;;;;;;;;;12.00;12.00;;;;;11.33;55.73;101539.78;4882914;29;45268;-68
2022/02/03 08:15:27;;;;;;;;;11.00;11.00;;;;;11.27;55.77;101524.75;4872271;29;45831;-70
2022/02/03 08:17:58;;;;;;;;;10.75;9.25;;;;;11.26;55.78;101528.38;4871707;29;45785;-70
2022/02/03 08:20:24;;;;;;;;;13.25;11.00;;;;;11.26;55.18;101530.13;4878766;29;48084;-70
2022/02/03 08:23:11;;;;;;;;;13.75;11.75;;;;;11.27;56.10;101542.59;4878672;29;45407;-70
2022/02/03 08:25:39;;;;;;;;;10.25;10.25;;;;;11.25;56.11;101541.75;4876130;29;45589;-70
2022/02/03 08:28:32;;;;;;;;;11.25;9.75;;;;;11.24;55.55;101542.66;4879656;29;46061;-70
2022/02/03 08:33:24;;;;;;;;;12.00;11.25;;;;;11.24;55.95;101538.22;4875422;29;46013;-70
2022/02/03 08:35:51;;;;;;;;;10.50;10.25;;;;;11.25;55.89;101544.44;4877000;29;45525;-70
2022/02/03 08:38:21;;;;;;;;;12.25;12.25;;;;;11.24;55.96;101535.53;4878648;29;45594;-70
2022/02/03 08:43:15;;;;;;;;;15.00;11.50;;;;;11.29;55.89;101538.09;4872791;29;45649;-70
2022/02/03 08:45:41;;;;;;;;;10.00;10.00;;;;;11.27;55.78;101524.75;4867581;29;46024;-70
2022/02/03 08:48:08;;;;;;;;;12.25;10.00;;;;;11.28;56.08;101517.66;4872456;29;45828;-73
2022/02/03 08:50:34;;;;;;;;;13.25;13.25;;;;;11.26;55.70;101511.44;4879962;29;46536;-71
2022/02/03 08:53:07;;;;;;;;;13.00;9.75;;;;;11.28;56.20;101518.50;4880857;29;45611;-71
2022/02/03 09:27:58;;;;;;;;;13.75;12.25;;;;;11.20;56.18;101503.56;4885149;29;45617;-71
2022/02/03 09:39:16;;;;;;;;;17.00;13.75;;;;;11.05;55.97;101503.00;4874802;29;45650;-71
2022/02/03 10:00:28;;;;;;;;;16.50;14.00;;;;;11.09;56.23;101471.72;4880594;29;45455;-71
2022/02/03 10:03:11;;;;;;;;;14.00;14.00;;;;;10.99;56.31;101440.81;4882733;29;45423;-71
2022/02/03 10:05:53;;;;;;;;;19.00;17.25;;;;;11.09;56.72;101469.06;4872772;29;47664;-71
2022/02/03 10:08:19;;;;;;;;;18.75;13.75;;;;;11.07;56.64;101454.88;4884347;29;45412;-71
2022/02/03 10:10:47;;;;;;;;;13.50;13.25;;;;;11.02;56.60;101446.94;4883180;29;45432;-71
2022/02/03 10:13:21;;;;;;;;;18.00;17.00;;;;;10.99;56.73;101462.19;4884019;29;45447;-71
2022/02/03 10:15:48;;;;;;;;;16.25;14.50;;;;;10.92;56.80;101450.75;4894928;29;47605;-71
2022/02/03 10:18:21;;;;;;;;;15.75;15.25;;;;;10.96;56.95;101459.56;4883860;29;45451;-71
2022/02/03 10:20:48;;;;;;;;;14.75;12.25;;;;;10.96;56.95;101470.25;4881881;29;45348;-71
2022/02/03 10:23:19;;;;;;;;;14.00;13.00;;;;;10.93;56.81;101468.53;4884948;29;45438;-71
2022/02/03 10:25:45;;;;;;;;;18.50;15.50;;;;;10.99;56.60;101463.03;4882324;29;46156;-71
2022/02/03 10:28:13;;;;;;;;;12.25;12.00;;;;;11.03;57.07;101471.91;4883592;29;45559;-71
2022/02/03 10:30:54;;;;;;;;;12.00;11.25;;;;;11.05;56.65;101476.28;4883178;29;45440;-71
2022/02/03 10:33:34;;;;;;;;;15.00;12.75;;;;;11.07;56.77;101469.09;4878733;29;45433;-71
2022/02/03 10:36:05;;;;;;;;;17.75;16.50;;;;;11.04;56.95;101461.19;4884185;29;46888;-71
2022/02/03 10:41:22;;;;;;;;;13.75;12.00;;;;;11.13;56.72;101479.66;4881096;29;45428;-71
2022/02/03 11:12:42;;;;;;;;;17.00;15.75;;;;;11.12;56.99;101423.56;4883671;29;45478;-71
2022/02/03 11:15:09;;;;;;;;;14.00;13.00;;;;;11.25;56.74;101434.84;4880948;29;45530;-71
2022/02/03 11:17:36;;;;;;;;;16.00;14.00;;;;;11.22;56.42;101432.25;4883284;29;45364;-71
2022/02/03 11:20:05;;;;;;;;;20.00;19.00;;;;;11.25;56.29;101419.69;4882206;29;45747;-71
2022/02/03 11:22:44;;;;;;;;;20.00;19.00;;;;;11.25;56.54;101414.34;4896576;29;45709;-71
2022/02/03 11:26:02;;;;;;;;;20.00;17.25;;;;;11.26;56.60;101423.22;4883500;29;45316;-71
2022/02/03 11:30:59;;;;;;;;;16.50;15.00;;;;;11.27;56.80;101411.63;4882528;29;45356;-71
2022/02/03 11:44:27;;;;;;;;;19.00;18.00;;;;;11.37;56.37;101409.63;4881457;29;45463;-70
2022/02/03 11:58:06;;;;;;;;;18.00;15.50;;;;;11.40;56.36;101385.50;4882325;29;45398;-71
2022/02/03 12:03:56;;;;;;;;;22.25;19.00;;;;;11.40;56.72;101386.34;4880409;29;45381;-71
2022/02/03 12:15:05;;;;;;;;;20.25;19.75;;;;;11.39;56.64;101365.88;4878954;29;45977;-71
2022/02/03 12:18:13;;;;;;;;;19.50;17.50;;;;;11.43;56.36;101372.91;4882753;29;45475;-70
2022/02/03 12:20:55;;;;;;;;;21.25;19.25;;;;;11.45;56.39;101368.41;4875424;29;45295;-71
2022/02/03 12:26:20;;;;;;;;;21.25;21.25;;;;;11.42;56.63;101349.75;4885238;29;45373;-69
2022/02/03 12:29:03;;;;;;;;;20.75;20.75;;;;;11.47;56.63;101353.19;4883356;29;45634;-70
2022/02/03 12:37:10;;;;;;;;;22.25;17.75;;;;;11.46;56.31;101334.50;4882509;29;46159;-70
2022/02/03 12:40:00;;;;;;;;;19.50;16.75;;;;;11.42;56.31;101330.19;4882904;29;45504;-71
2022/02/03 12:45:17;;;;;;;;;22.00;16.75;;;;;11.43;56.72;101339.97;4877108;29;45957;-68
2022/02/03 12:47:48;;;;;;;;;20.50;20.25;;;;;11.40;56.79;101332.03;4878550;29;45644;-72
2022/02/03 12:50:22;;;;;;;;;19.50;18.75;;;;;11.46;56.57;101339.88;4881774;29;45755;-70
2022/02/03 12:52:48;;;;;;;;;20.75;17.50;;;;;11.45;56.60;101340.81;4881470;29;45582;-71
2022/02/03 12:55:35;;;;;;;;;19.00;15.50;;;;;11.43;56.46;101329.28;4882203;29;45663;-70
2022/02/03 12:58:12;;;;;;;;;22.50;19.00;;;;;11.48;56.61;101336.25;4882777;29;45743;-71
2022/02/03 13:00:44;;;;;;;;;20.50;19.00;;;;;11.47;56.54;101318.44;4894924;29;45536;-71
2022/02/03 13:03:12;;;;;;;;;20.00;18.00;;;;;11.45;56.80;101322.97;4882693;29;45758;-71
2022/02/03 13:05:40;;;;;;;;;21.25;17.25;;;;;11.48;56.75;101319.34;4882267;29;45754;-70
2022/02/03 13:08:08;;;;;;;;;17.25;13.50;;;;;11.50;56.84;101326.38;4882446;29;45879;-71
2022/02/03 13:10:37;;;;;;;;;18.75;18.75;;;;;11.52;56.56;101325.47;4879485;29;45848;-70
2022/02/03 13:13:24;;;;;;;;;14.75;14.50;;;;;11.54;56.53;101324.50;4882566;29;45560;-71
2022/02/03 13:15:49;;;;;;;;;21.50;19.75;;;;;11.50;56.63;101313.00;4871404;29;45512;-71
2022/02/03 13:18:28;;;;;;;;;19.75;18.75;;;;;11.46;56.81;101308.69;4885971;29;45415;-71
2022/02/03 13:21:08;;;;;;;;;21.25;19.25;;;;;11.54;56.55;101328.97;4881544;29;45787;-70
2022/02/03 13:23:37;;;;;;;;;22.00;18.00;;;;;11.54;56.26;101324.50;4882501;29;45469;-70
2022/02/03 13:26:13;;;;;;;;;20.00;18.00;;;;;11.49;56.93;101311.28;4896109;29;47759;-69
2022/02/03 13:29:01;;;;;;;;;23.75;20.75;;;;;11.54;56.56;101318.28;4880739;29;45805;-71
2022/02/03 13:31:42;;;;;;;;;21.75;20.75;;;;;11.52;57.03;101306.75;4880102;29;45680;-71
2022/02/03 13:34:24;;;;;;;;;22.50;18.50;;;;;11.52;56.99;101309.44;4882210;29;45430;-70
2022/02/03 13:36:56;;;;;;;;;20.75;16.50;;;;;11.50;56.85;101313.00;4881411;29;45515;-70
2022/02/03 13:39:36;;;;;;;;;19.25;18.75;;;;;11.47;57.19;101318.44;4881090;29;45446;-70
2022/02/03 13:42:03;;;;;;;;;31.50;21.50;;;;;11.47;56.94;101310.41;4878625;29;45736;-70
2022/02/03 13:44:30;;;;;;;;;22.75;19.75;;;;;11.45;57.03;101301.56;4884324;29;45363;-73
2022/02/03 13:46:55;;;;;;;;;19.50;17.00;;;;;11.48;57.05;101304.16;4885221;29;45471;-73
2022/02/03 13:49:22;;;;;;;;;22.00;20.50;;;;;11.48;57.17;101295.28;4883470;29;45368;-73
2022/02/03 13:52:07;;;;;;;;;23.75;19.25;;;;;11.54;57.00;101299.56;4884983;29;45506;-72
2022/02/03 14:10:29;;;;;;;;;18.00;16.50;;;;;11.49;56.87;101299.69;4885242;29;45410;-72
2022/02/03 14:22:11;;;;;;;;;28.75;21.50;;;;;11.44;57.36;101280.22;4883785;29;45601;-73
2022/02/03 14:27:27;;;;;;;;;23.75;22.00;;;;;11.45;57.76;101276.66;4883329;29;45149;-73
2022/02/03 14:30:01;;;;;;;;;17.50;13.25;;;;;11.44;57.14;101273.09;4885075;29;45337;-72
2022/02/03 14:32:32;;;;;;;;;19.50;18.00;;;;;11.49;57.64;101278.28;4899788;29;45366;-71
2022/02/03 14:34:58;;;;;;;;;20.25;18.00;;;;;11.49;57.61;101268.50;4884919;29;45513;-72
2022/02/03 14:42:43;;;;;;;;;20.00;14.00;;;;;11.58;57.69;101266.50;4883243;29;45384;-72
2022/02/03 14:45:12;;;;;;;;;20.50;17.75;;;;;11.62;57.72;101265.47;4883214;29;45273;-72
2022/02/03 14:47:39;;;;;;;;;19.75;15.50;;;;;11.61;57.43;101255.69;4880608;29;45305;-71
2022/02/03 14:50:05;;;;;;;;;22.25;19.75;;;;;11.63;57.50;101256.53;4883283;29;48364;-71
2022/02/03 14:52:34;;;;;;;;;21.00;19.25;;;;;11.62;57.98;101252.97;4884683;29;45325;-71
2022/02/03 14:58:04;;;;;;;;;18.75;14.75;;;;;11.67;57.66;101253.72;4872505;29;45343;-73
2022/02/03 15:00:30;;;;;;;;;15.00;13.25;;;;;11.66;57.80;101253.75;4883313;29;47515;-71
2022/02/03 15:02:56;;;;;;;;;18.25;17.75;;;;;11.67;57.36;101253.72;4882590;29;46068;-72
2022/02/03 15:05:28;;;;;;;;;22.25;19.75;;;;;11.71;57.50;101253.63;4883023;29;45478;-71
2022/02/03 15:07:58;;;;;;;;;17.00;15.00;;;;;11.66;57.47;101249.31;4884097;29;45371;-71
2022/02/03 15:10:42;;;;;;;;;15.50;11.75;;;;;11.68;57.24;101250.13;4883070;29;47155;-72
2022/02/03 15:15:50;;;;;;;;;20.00;15.50;;;;;11.62;57.53;101250.28;4875596;29;45314;-71
2022/02/03 15:18:17;;;;;;;;;14.75;12.50;;;;;11.63;57.52;101264.56;4881959;29;45232;-71
2022/02/03 15:20:43;;;;;;;;;17.75;16.25;;;;;11.67;57.68;101251.03;4882639;29;46086;-72
2022/02/03 15:23:08;;;;;;;;;14.25;12.25;;;;;11.68;57.56;101257.28;4879208;29;45386;-73
2022/02/03 15:25:34;;;;;;;;;16.25;13.25;;;;;11.65;57.47;101247.53;4883275;29;45248;-71
2022/02/03 15:28:00;;;;;;;;;14.00;13.00;;;;;11.72;57.59;101253.59;4878127;29;45620;-71
2022/02/03 15:30:25;;;;;;;;;15.50;15.00;;;;;11.71;57.50;101249.19;4879176;29;46897;-72
2022/02/03 15:32:52;;;;;;;;;16.50;13.25;;;;;11.74;57.50;101250.88;4881455;29;45277;-72
2022/02/03 15:35:26;;;;;;;;;10.75;8.25;;;;;11.77;57.52;101262.34;4881682;29;45449;-72
2022/02/03 15:37:53;;;;;;;;;16.00;13.25;;;;;11.72;57.17;101245.56;4882967;29;45297;-72
2022/02/03 15:40:24;;;;;;;;;10.50;9.25;;;;;11.76;57.31;101255.28;4880592;29;45499;-71
2022/02/03 15:42:56;;;;;;;;;13.00;13.00;;;;;11.78;57.43;101252.56;4871659;29;45589;-72
2022/02/03 15:45:22;;;;;;;;;15.25;13.75;;;;;11.80;57.29;101251.56;4882590;29;45295;-72
2022/02/03 15:47:53;;;;;;;;;12.25;11.00;;;;;11.78;57.62;101248.06;4883064;29;45376;-72
2022/02/03 16:00:11;;;;;;;;;16.50;13.75;;;;;11.81;57.24;101247.09;4887002;29;45479;-72
2022/02/03 16:17:22;;;;;;;;;12.50;12.50;;;;;11.94;57.57;101245.84;4886280;29;45402;-70
2022/02/03 16:22:25;;;;;;;;;11.75;11.00;;;;;11.94;57.11;101234.25;4886471;29;46017;-69
2022/02/03 16:24:58;;;;;;;;;12.00;11.00;;;;;11.96;57.35;101233.31;4886240;29;45561;-69
2022/02/03 16:41:14;;;;;;;;;12.50;12.50;;;;;11.92;57.40;101245.00;4880821;29;45470;-71
2022/02/03 16:52:18;;;;;;;;;17.00;15.00;;;;;11.86;57.76;101246.03;4883609;29;45352;-67
2022/02/03 16:54:43;;;;;;;;;17.75;16.00;;;;;11.84;57.82;101247.00;4885346;29;46216;-70
2022/02/03 16:57:14;;;;;;;;;16.75;16.00;;;;;11.83;57.68;101245.25;4881927;29;45456;-71
2022/02/03 16:59:49;;;;;;;;;15.25;15.25;;;;;11.89;57.87;101255.75;4882377;29;45676;-72
2022/02/03 17:02:15;;;;;;;;;17.00;15.50;;;;;11.88;57.70;101259.38;4874850;29;45558;-70
2022/02/03 17:04:41;;;;;;;;;11.00;10.00;;;;;11.90;57.75;101260.19;4899272;28;47341;-70
2022/02/03 17:07:06;;;;;;;;;17.00;16.25;;;;;11.86;57.60;101258.53;4884658;29;45407;-70
2022/02/03 17:09:32;;;;;;;;;17.00;14.50;;;;;11.91;57.75;101261.06;4884833;29;45743;-70
2022/02/03 17:11:58;;;;;;;;;18.00;15.50;;;;;11.92;57.96;101257.53;4881635;29;45387;-71
2022/02/03 17:14:25;;;;;;;;;15.50;13.75;;;;;11.93;57.98;101261.94;4879791;29;46943;-70
2022/02/03 17:16:51;;;;;;;;;14.00;14.00;;;;;11.91;57.82;101255.72;4880252;29;45594;-70
2022/02/03 17:19:18;;;;;;;;;14.75;13.00;;;;;11.93;57.89;101259.25;4884581;29;45925;-71
2022/02/03 17:21:44;;;;;;;;;13.75;13.75;;;;;11.93;57.83;101257.47;4884202;29;45506;-71
2022/02/03 17:24:11;;;;;;;;;12.50;10.50;;;;;11.92;57.83;101257.53;4883011;29;47738;-71
2022/02/03 17:26:49;;;;;;;;;14.00;12.50;;;;;11.95;57.66;101263.66;4885168;29;45694;-71
2022/02/03 17:29:21;;;;;;;;;11.75;11.75;;;;;11.96;57.81;101267.19;4895431;28;45758;-71
2022/02/03 17:32:06;;;;;;;;;12.75;11.25;;;;;11.92;57.64;101260.19;4881570;29;45304;-71
2022/02/03 18:10:09;;;;;;;;;18.25;15.25;;;;;11.96;58.21;101273.44;4890132;29;45379;-74
2022/02/03 18:19:26;;;;;;;;;13.00;11.50;;;;;11.96;58.32;101269.88;4888098;29;45341;-70
2022/02/03 18:34:49;;;;;;;;;15.50;14.00;;;;;11.96;58.57;101275.22;4875663;29;45419;-71
2022/02/03 18:50:34;;;;;;;;;17.00;14.00;;;;;11.97;58.36;101276.97;4882914;29;45475;-78
2022/02/03 18:55:33;;;;;;;;;17.00;15.00;;;;;12.03;58.64;101287.50;4882646;29;45238;-74
2022/02/03 19:14:40;;;;;;;;;16.25;15.50;;;;;11.94;59.49;101288.63;4845483;29;45681;-70
2022/02/03 20:06:31;;;;;;;;;15.50;14.75;;;;;11.90;59.87;101283.41;4883429;29;45403;-69
2022/02/03 20:08:52;;;;;;;;;18.75;17.25;;;;;11.94;59.87;101288.63;4868439;29;45292;-67
2022/02/03 20:11:19;;;;;;;;;24.75;21.00;;;;;11.92;59.94;101298.50;4892783;29;45518;-67
2022/02/03 20:13:47;;;;;;;;;18.50;16.25;;;;;11.88;60.19;101294.16;4894603;29;45586;-73
2022/02/03 20:16:16;;;;;;;;;14.50;14.50;;;;;11.86;60.21;101296.88;4883351;29;45383;-78
2022/02/03 20:18:42;;;;;;;;;16.75;14.00;;;;;11.92;60.08;101308.34;4875592;29;45607;-70
2022/02/03 20:21:07;;;;;;;;;19.25;16.50;;;;;11.91;60.30;101309.22;4883208;29;45435;-71
2022/02/03 20:23:38;;;;;;;;;21.00;17.25;;;;;11.85;60.11;101296.91;4875783;29;45444;-74
2022/02/03 20:26:04;;;;;;;;;21.50;18.50;;;;;11.84;60.26;101309.44;4877563;29;47116;-72
2022/02/03 20:28:30;;;;;;;;;19.75;15.00;;;;;11.82;60.25;101300.53;4878362;29;45452;-72
2022/02/03 20:30:55;;;;;;;;;18.75;18.00;;;;;11.91;60.25;101307.47;4883013;29;45135;-72
2022/02/03 20:33:21;;;;;;;;;18.50;17.50;;;;;11.93;60.07;101302.06;4883400;29;45246;-69
2022/02/03 20:35:47;;;;;;;;;14.75;14.75;;;;;11.93;60.23;101310.09;4897401;29;47411;-70
2022/02/03 20:38:15;;;;;;;;;19.25;16.00;;;;;11.88;60.29;101302.19;4882816;29;45321;-70
2022/02/03 20:40:43;;;;;;;;;16.00;14.00;;;;;11.86;60.15;101299.53;4883233;29;45469;-73
2022/02/03 20:43:09;;;;;;;;;16.75;16.25;;;;;11.90;60.30;101303.00;4885690;29;45488;-71
2022/02/03 20:45:34;;;;;;;;;17.50;15.50;;;;;11.91;60.34;101303.88;4886628;29;46176;-71
2022/02/03 20:47:59;;;;;;;;;16.50;16.00;;;;;11.92;60.16;101314.56;4885685;29;45329;-71
2022/02/03 20:50:25;;;;;;;;;16.75;14.75;;;;;11.87;60.67;101298.59;4900797;29;45332;-72
2022/02/03 20:52:51;;;;;;;;;15.00;13.00;;;;;11.90;60.32;101304.81;4885488;29;45337;-71
2022/02/03 20:55:17;;;;;;;;;14.75;12.75;;;;;11.88;60.60;101307.53;4886044;29;46090;-71
2022/02/03 20:57:43;;;;;;;;;19.75;16.25;;;;;11.84;60.70;101300.50;4884699;29;45206;-72
2022/02/03 21:02:51;;;;;;;;;21.25;15.25;;;;;11.82;60.57;101291.66;4883715;29;46716;-72
2022/02/03 21:05:16;;;;;;;;;19.25;15.00;;;;;11.90;60.97;101307.50;4881452;29;45502;-70
2022/02/03 21:07:47;;;;;;;;;16.00;14.75;;;;;11.85;60.48;101297.78;4883999;29;45277;-70
2022/02/03 21:10:17;;;;;;;;;20.25;18.00;;;;;11.87;60.68;101303.97;4885800;29;45513;-69
2022/02/03 21:12:44;;;;;;;;;15.50;13.25;;;;;11.87;60.85;101311.97;4883172;29;45288;-69
2022/02/03 21:15:12;;;;;;;;;18.75;14.50;;;;;11.87;60.86;101311.13;4874248;29;45471;-70
2022/02/03 21:17:38;;;;;;;;;15.50;12.75;;;;;11.84;60.72;101304.06;4871585;29;45734;-69
2022/02/03 21:20:09;;;;;;;;;15.75;14.75;;;;;11.84;60.62;101304.06;4877069;29;45393;-70
2022/02/03 21:22:38;;;;;;;;;15.75;15.00;;;;;11.87;60.92;101306.63;4885478;29;45427;-74
2022/02/03 21:25:58;;;;;;;;;16.00;15.75;;;;;11.86;60.75;101302.22;4885176;29;45273;-74
2022/02/03 21:28:10;;;;;;;;;15.25;15.25;;;;;11.90;60.66;101307.50;4876374;29;45315;-72
2022/02/03 21:30:36;;;;;;;;;17.00;14.50;;;;;11.90;60.72;101310.16;4880249;29;45517;-72
2022/02/03 21:33:02;;;;;;;;;15.25;14.00;;;;;11.91;60.47;101317.25;4885371;29;45447;-73
2022/02/03 21:35:28;;;;;;;;;17.00;16.00;;;;;11.90;60.74;101312.84;4874782;29;45261;-74
2022/02/03 21:37:54;;;;;;;;;16.00;14.75;;;;;11.85;60.35;101305.81;4885597;29;46681;-71
2022/02/03 21:40:21;;;;;;;;;16.75;16.00;;;;;11.90;60.44;101319.06;4879095;29;45317;-71
2022/02/03 21:42:48;;;;;;;;;14.00;13.75;;;;;11.87;60.54;101311.97;4880850;29;45365;-70
2022/02/03 21:45:17;;;;;;;;;21.00;17.00;;;;;11.87;60.58;101320.00;4889133;29;47213;-67
2022/02/03 21:47:42;;;;;;;;;13.75;13.00;;;;;11.86;60.62;101320.94;4884020;29;45518;-69
2022/02/03 21:50:08;;;;;;;;;15.75;13.50;;;;;11.85;60.54;101321.00;4882197;29;45305;-68